KHRO/HRO METAR and TAF weather

Enter ICAO airport designator
Station Type Date Time Source
KHRO METAR 2019/02/18 03:53 UTC NOAA

KHRO 180353Z AUTO 31007KT 10SM CLR M02/M06 A3010 RMK AO2 SLP206 T10171056


Station Type Date Time Source
KHRO Decoded METAR 2019/02/18 03:53 UTC NOAA

HARRISON BOONE COUNTY AIRPORT , AR, United States (KHRO) 36-16N 093-09W 417M
Feb 17, 2019 - 10:53 PM EST / 2019.02.18 0353 UTC
Wind: from the NW (310 degrees) at 8 MPH (7 KT):0
Visibility: 10 mile(s):0
Sky conditions: clear
Temperature: 28.9 F (-1.7 C)
Windchill: 21 F (-6 C):1
Dew Point: 21.9 F (-5.6 C)
Relative Humidity: 74%
Pressure (altimeter): 30.1 in. Hg (1019 hPa)
ob: KHRO 180353Z AUTO 31007KT 10SM CLR M02/M06 A3010 RMK AO2 SLP206 T10171056
cycle: 4

Station Type Date Time Source
KHRO TAF 2019/02/17 21:42 UTC NOAA

TAF
AMD KHRO 172040Z 1721/1818 28011G18KT P6SM SCT025
FM172200 31007KT P6SM SCT250
FM181600 35008KT P6SM SKC


Example: see airport list